Hier das METAR für die 16 wichtigsten Deutschen Flughäfen.
(dauert ein wenig.... ich muss laden.....)

ODER
METAR nach ICAO Code suchen

Berlin - Schönefeld

EDDB

METAR
EDDB 150520Z 09012KT 8000 BKN010 05/03 Q1007 TEMPO 09015G25KT 4500 BR BKN009
EDDBMETAR lang
Berlin-Schoenefeld, Germany (EDDB) 52-23N 013-31E 50M
Nov 15, 2019 - 12:20 AM EST / 2019.11.15 0520 UTC
Wind: from the E (090 degrees) at 14 MPH (12 KT):0
Visibility: 4 mile(s):0
Sky conditions: mostly cloudy
Temperature: 41 F (5 C)
Dew Point: 37 F (3 C)
Relative Humidity: 86%
Pressure (altimeter): 29.74 in. Hg (1007 hPa)
ob: EDDB 150520Z 09012KT 8000 BKN010 05/03 Q1007 TEMPO 09015G25KT 4500 BR BKN009
cycle: 5

Dresden

EDDC

METAR
EDDC 150520Z 08011KT 9999 BKN024 04/02 Q1003 NOSIG
EDDCMETAR lang
Dresden-Klotzsche, Germany (EDDC) 51-08N 013-45E 232M
Nov 15, 2019 - 12:20 AM EST / 2019.11.15 0520 UTC
Wind: from the E (080 degrees) at 13 MPH (11 KT):0
Visibility: greater than 7 mile(s):0
Sky conditions: mostly cloudy
Temperature: 39 F (4 C)
Dew Point: 35 F (2 C)
Relative Humidity: 86%
Pressure (altimeter): 29.62 in. Hg (1003 hPa)
ob: EDDC 150520Z 08011KT 9999 BKN024 04/02 Q1003 NOSIG
cycle: 5

Erfurt

EDDE

METAR
EDDE 150520Z 08009KT 040V100 0400 R10/1000U FG VV/// 01/01 Q1001 TEMPO 0100 FG
EDDEMETAR lang
Erfurt-Bindersleben, Germany (EDDE) 50-59N 010-58E 322M
Nov 15, 2019 - 12:20 AM EST / 2019.11.15 0520 UTC
Wind: from the E (080 degrees) at 10 MPH (9 KT) (direction variable):0
Visibility: less than 1 mile:0
Sky conditions: obscured
Weather: fog
Temperature: 33 F (1 C)
Windchill: 24 F (-4 C):1
Dew Point: 33 F (1 C)
Relative Humidity: 100%
Pressure (altimeter): 29.56 in. Hg (1001 hPa)
ob: EDDE 150520Z 08009KT 040V100 0400 R10/1000U FG VV/// 01/01 Q1001 TEMPO 0100 FG
cycle: 5

Frankfurt a. Main

EDDF

METAR
EDDF 150520Z 03013KT CAVOK 04/00 Q0997 NOSIG
EDDFMETAR lang
Frankfurt / M-Flughafen, Germany (EDDF) 50-03N 008-36E 113M
Nov 15, 2019 - 12:20 AM EST / 2019.11.15 0520 UTC
Wind: from the NNE (030 degrees) at 15 MPH (13 KT):0
Visibility: greater than 7 mile(s):0
Temperature: 39 F (4 C)
Dew Point: 32 F (0 C)
Relative Humidity: 75%
Pressure (altimeter): 29.44 in. Hg (0997 hPa)
ob: EDDF 150520Z 03013KT CAVOK 04/00 Q0997 NOSIG
cycle: 5

Münster Osnabrück

EDDG

METAR
EDDG 150520Z 06007KT 020V100 9999 FEW022 04/M00 Q1001 BECMG BKN012
EDDGMETAR lang
Muenster / Osnabrueck, Germany (EDDG) 52-08N 007-42E 53M
Nov 15, 2019 - 12:20 AM EST / 2019.11.15 0520 UTC
Wind: from the ENE (060 degrees) at 8 MPH (7 KT) (direction variable):0
Visibility: greater than 7 mile(s):0
Sky conditions: mostly clear
Temperature: 39 F (4 C)
Dew Point: 32 F (0 C)
Relative Humidity: 75%
Pressure (altimeter): 29.56 in. Hg (1001 hPa)
ob: EDDG 150520Z 06007KT 020V100 9999 FEW022 04/M00 Q1001 BECMG BKN012
cycle: 5

Hamburg

EDDH

METAR
EDDH 150520Z 08013KT 9999 BKN016 04/01 Q1007 NOSIG
EDDHMETAR lang
Hamburg-Fuhlsbuettel, Germany (EDDH) 53-38N 010-00E 15M
Nov 15, 2019 - 12:20 AM EST / 2019.11.15 0520 UTC
Wind: from the E (080 degrees) at 15 MPH (13 KT):0
Visibility: greater than 7 mile(s):0
Sky conditions: mostly cloudy
Temperature: 39 F (4 C)
Dew Point: 33 F (1 C)
Relative Humidity: 80%
Pressure (altimeter): 29.74 in. Hg (1007 hPa)
ob: EDDH 150520Z 08013KT 9999 BKN016 04/01 Q1007 NOSIG
cycle: 5

Köln - Bonn

EDDK

METAR
EDDK 150520Z VRB02KT CAVOK 03/00 Q0998 NOSIG
EDDKMETAR lang
Koeln / Bonn, Germany (EDDK) 50-52N 007-10E 100M
Nov 15, 2019 - 12:20 AM EST / 2019.11.15 0520 UTC
Wind: Variable at 2 MPH (2 KT):0
Visibility: greater than 7 mile(s):0
Temperature: 37 F (3 C)
Dew Point: 32 F (0 C)
Relative Humidity: 80%
Pressure (altimeter): 29.47 in. Hg (0998 hPa)
ob: EDDK 150520Z VRB02KT CAVOK 03/00 Q0998 NOSIG
cycle: 5

Düsseldorf

EDDL

METAR
EDDL 150520Z 05010KT CAVOK 02/01 Q0999 NOSIG
EDDLMETAR lang
Duesseldorf, Germany (EDDL) 51-18N 006-46E 41M
Nov 15, 2019 - 12:20 AM EST / 2019.11.15 0520 UTC
Wind: from the NE (050 degrees) at 12 MPH (10 KT):0
Visibility: greater than 7 mile(s):0
Temperature: 35 F (2 C)
Windchill: 26 F (-3 C):1
Dew Point: 33 F (1 C)
Relative Humidity: 93%
Pressure (altimeter): 29.50 in. Hg (0999 hPa)
ob: EDDL 150520Z 05010KT CAVOK 02/01 Q0999 NOSIG
cycle: 5

München

EDDM

METAR
EDDM 150520Z 13006KT 050V170 CAVOK 04/00 Q0995 NOSIG
EDDMMETAR lang
Munchen, Germany (EDDM) 48-21N 011-47E
Nov 15, 2019 - 12:20 AM EST / 2019.11.15 0520 UTC
Wind: from the SE (130 degrees) at 7 MPH (6 KT) (direction variable):0
Visibility: greater than 7 mile(s):0
Temperature: 39 F (4 C)
Dew Point: 32 F (0 C)
Relative Humidity: 75%
Pressure (altimeter): 29.38 in. Hg (0995 hPa)
ob: EDDM 150520Z 13006KT 050V170 CAVOK 04/00 Q0995 NOSIG
cycle: 5

Nürnberg

EDDN

METAR
EDDN 150520Z 08009KT 050V110 CAVOK 05/02 Q0997 NOSIG
EDDNMETAR lang
Nuernberg, Germany (EDDN) 49-30N 011-03E 318M
Nov 15, 2019 - 12:20 AM EST / 2019.11.15 0520 UTC
Wind: from the E (080 degrees) at 10 MPH (9 KT) (direction variable):0
Visibility: greater than 7 mile(s):0
Temperature: 41 F (5 C)
Dew Point: 35 F (2 C)
Relative Humidity: 80%
Pressure (altimeter): 29.44 in. Hg (0997 hPa)
ob: EDDN 150520Z 08009KT 050V110 CAVOK 05/02 Q0997 NOSIG
cycle: 5

Leipzig - Halle

EDDP

METAR
EDDP 150520Z 08013KT 7000 BKN008 BKN026 04/03 Q1003 NOSIG
EDDPMETAR lang
Leipzig-Schkeuditz, Germany (EDDP) 51-25N 012-14E 149M
Nov 15, 2019 - 12:20 AM EST / 2019.11.15 0520 UTC
Wind: from the E (080 degrees) at 15 MPH (13 KT):0
Visibility: 4 mile(s):0
Sky conditions: mostly cloudy
Temperature: 39 F (4 C)
Dew Point: 37 F (3 C)
Relative Humidity: 93%
Pressure (altimeter): 29.62 in. Hg (1003 hPa)
ob: EDDP 150520Z 08013KT 7000 BKN008 BKN026 04/03 Q1003 NOSIG
cycle: 5

Saarbrücken

EDDR

METAR
EDDR 150520Z 06014KT 9999 FEW012 02/00 Q0993 NOSIG
EDDRMETAR lang
Saarbruecken / Ensheim, Germany (EDDR) 49-13N 007-07E 320M
Nov 15, 2019 - 12:20 AM EST / 2019.11.15 0520 UTC
Wind: from the ENE (060 degrees) at 16 MPH (14 KT):0
Visibility: greater than 7 mile(s):0
Sky conditions: mostly clear
Temperature: 35 F (2 C)
Windchill: 24 F (-4 C):1
Dew Point: 32 F (0 C)
Relative Humidity: 86%
Pressure (altimeter): 29.32 in. Hg (0993 hPa)
ob: EDDR 150520Z 06014KT 9999 FEW012 02/00 Q0993 NOSIG
cycle: 5

Stuttgart

EDDS

METAR
EDDS 150520Z 29003KT 220V320 CAVOK 02/M00 Q0994 NOSIG
EDDSMETAR lang
Stuttgart-Echterdingen, Germany (EDDS) 48-41N 009-13E 391M
Nov 15, 2019 - 12:20 AM EST / 2019.11.15 0520 UTC
Wind: from the WNW (290 degrees) at 3 MPH (3 KT) (direction variable):0
Visibility: greater than 7 mile(s):0
Temperature: 35 F (2 C)
Dew Point: 32 F (0 C)
Relative Humidity: 86%
Pressure (altimeter): 29.35 in. Hg (0994 hPa)
ob: EDDS 150520Z 29003KT 220V320 CAVOK 02/M00 Q0994 NOSIG
cycle: 5

Berlin - Tegel

EDDT

METAR
EDDT 150520Z 09013KT 050V130 9999 BKN009 05/03 Q1007 NOSIG
EDDTMETAR lang
Berlin-Tegel, Germany (EDDT) 52-34N 013-19E 37M
Nov 15, 2019 - 12:20 AM EST / 2019.11.15 0520 UTC
Wind: from the E (090 degrees) at 15 MPH (13 KT) (direction variable):0
Visibility: greater than 7 mile(s):0
Sky conditions: mostly cloudy
Temperature: 41 F (5 C)
Dew Point: 37 F (3 C)
Relative Humidity: 86%
Pressure (altimeter): 29.74 in. Hg (1007 hPa)
ob: EDDT 150520Z 09013KT 050V130 9999 BKN009 05/03 Q1007 NOSIG
cycle: 5

Hannover

EDDV

METAR
EDDV 150520Z 08018KT 8000 BKN010 04/02 Q1003 TEMPO BKN007
EDDVMETAR lang
Hannover, Germany (EDDV) 52-28N 009-41E 59M
Nov 15, 2019 - 12:20 AM EST / 2019.11.15 0520 UTC
Wind: from the E (080 degrees) at 21 MPH (18 KT):0
Visibility: 4 mile(s):0
Sky conditions: mostly cloudy
Temperature: 39 F (4 C)
Dew Point: 35 F (2 C)
Relative Humidity: 86%
Pressure (altimeter): 29.62 in. Hg (1003 hPa)
ob: EDDV 150520Z 08018KT 8000 BKN010 04/02 Q1003 TEMPO BKN007
cycle: 5

Bremen

EDDW

METAR
EDDW 150520Z 07015KT 9999 BKN014 BKN020 04/01 Q1005 NOSIG
EDDWMETAR lang
Bremen, Germany (EDDW) 53-03N 008-48E 5M
Nov 15, 2019 - 12:20 AM EST / 2019.11.15 0520 UTC
Wind: from the ENE (070 degrees) at 17 MPH (15 KT):0
Visibility: greater than 7 mile(s):0
Sky conditions: mostly cloudy
Temperature: 39 F (4 C)
Dew Point: 33 F (1 C)
Relative Humidity: 80%
Pressure (altimeter): 29.68 in. Hg (1005 hPa)
ob: EDDW 150520Z 07015KT 9999 BKN014 BKN020 04/01 Q1005 NOSIG
cycle: 5